Time;durP1;ratioP1;P1;durP2;ratioP2;P2;SDS_P1;SDS_P2;PMS_P1;PMS_P2;Temp;Humidity;BMP_temperature;BMP_pressure;BME280_temperature;BME280_humidity;BME280_pressure;Samples;Min_cycle;Max_cycle;Signal;HPM_P1;HPM_P2
2022/08/22 00:01:08;;;;;;;9.02;3.58;;;;;;;19.96;60.19;101520.56;6212218;23;20035;-60
2022/08/22 00:04:05;;;;;;;8.07;3.50;;;;;;;20.05;59.72;101513.16;6213289;23;20005;-60
2022/08/22 00:06:52;;;;;;;7.68;3.83;;;;;;;20.02;59.84;101514.59;6213592;23;20011;-60
2022/08/22 00:09:32;;;;;;;7.53;3.55;;;;;;;20.02;59.85;101520.22;6213267;23;20019;-60
2022/08/22 00:12:28;;;;;;;12.00;3.50;;;;;;;20.04;59.84;101517.09;6212955;23;20017;-60
2022/08/22 00:15:02;;;;;;;8.82;3.65;;;;;;;19.93;60.45;101522.03;6203164;23;20009;-60
2022/08/22 00:17:37;;;;;;;7.88;3.50;;;;;;;19.94;60.51;101514.41;6212607;23;20322;-60
2022/08/22 00:20:34;;;;;;;4.90;3.13;;;;;;;20.04;59.96;101525.53;6213276;23;20011;-60
2022/08/22 00:23:10;;;;;;;8.07;3.45;;;;;;;19.91;60.65;101518.66;6210701;23;20080;-60
2022/08/22 00:25:48;;;;;;;5.63;3.00;;;;;;;19.93;60.46;101526.84;6213430;23;20008;-60
2022/08/22 00:28:26;;;;;;;8.25;3.40;;;;;;;19.95;60.30;101524.53;6213880;23;20001;-60
2022/08/22 00:31:21;;;;;;;7.72;3.40;;;;;;;19.91;60.42;101524.28;6212119;23;20109;-60
2022/08/22 00:34:00;;;;;;;6.50;3.45;;;;;;;19.99;60.15;101520.81;6212473;23;20001;-60
2022/08/22 00:36:38;;;;;;;9.88;3.22;;;;;;;19.91;60.59;101517.81;6213711;23;20103;-59
2022/08/22 00:39:09;;;;;;;8.05;3.67;;;;;;;19.91;60.44;101521.47;6211941;23;20083;-60
2022/08/22 00:42:12;;;;;;;7.25;3.22;;;;;;;19.97;60.17;101516.63;6213169;23;20016;-59
2022/08/22 00:44:56;;;;;;;7.30;3.30;;;;;;;19.90;60.33;101517.00;6213075;23;20020;-59
2022/08/22 00:47:37;;;;;;;7.28;3.55;;;;;;;19.86;60.70;101515.91;6213685;23;20008;-60
2022/08/22 00:50:37;;;;;;;7.22;3.35;;;;;;;19.88;60.40;101524.06;6212743;23;20418;-60
2022/08/22 00:53:21;;;;;;;7.18;3.25;;;;;;;19.80;61.24;101520.75;6212625;23;20004;-59
2022/08/22 00:56:19;;;;;;;6.68;3.10;;;;;;;19.81;60.67;101522.44;6213118;23;20008;-59
2022/08/22 00:59:02;;;;;;;9.68;3.65;;;;;;;19.82;60.67;101523.28;6212431;23;20015;-59
2022/08/22 01:01:35;;;;;;;10.15;4.18;;;;;;;19.77;60.95;101527.00;6213280;23;20016;-60
2022/08/22 01:04:20;;;;;;;8.20;3.45;;;;;;;19.77;60.96;101523.34;6211381;23;20055;-60
2022/08/22 01:06:54;;;;;;;8.82;3.30;;;;;;;19.68;61.56;101520.31;6213537;23;20039;-60
2022/08/22 01:09:29;;;;;;;6.95;3.25;;;;;;;19.69;61.25;101521.16;6213319;23;20420;-60
2022/08/22 01:12:25;;;;;;;7.25;3.28;;;;;;;19.72;61.17;101518.59;6214695;23;20389;-60
2022/08/22 01:14:59;;;;;;;6.65;3.80;;;;;;;19.70;61.13;101514.41;6214562;23;20000;-60
2022/08/22 01:17:44;;;;;;;6.30;3.30;;;;;;;19.65;60.78;101517.25;6215489;23;20008;-60
2022/08/22 01:20:27;;;;;;;6.13;3.85;;;;;;;19.72;60.59;101515.78;6214352;23;20042;-60
2022/08/22 01:23:23;;;;;;;6.88;4.05;;;;;;;19.71;60.60;101516.91;6214666;23;20483;-60
2022/08/22 01:26:14;;;;;;;6.45;3.60;;;;;;;19.66;60.95;101510.53;6214701;23;20060;-60
2022/08/22 01:29:15;;;;;;;7.43;4.28;;;;;;;19.73;60.48;101506.22;6211887;23;20004;-60
2022/08/22 01:32:07;;;;;;;5.38;4.45;;;;;;;19.66;60.61;101517.00;6214516;23;20005;-60
2022/08/22 01:35:10;;;;;;;10.52;5.80;;;;;;;19.66;60.33;101514.16;6213875;23;20031;-60
2022/08/22 01:37:54;;;;;;;;;;;;;;;19.85;59.50;101509.44;6215309;23;20012;-59
2022/08/22 01:40:34;;;;;;;13.07;5.40;;;;;;;19.58;60.60;101511.97;6214021;23;20243;-59
2022/08/22 01:43:13;;;;;;;9.18;5.60;;;;;;;19.55;60.67;101507.75;6214568;23;20016;-59
2022/08/22 01:46:11;;;;;;;9.88;5.93;;;;;;;19.56;60.44;101519.88;6214469;23;20047;-60
2022/08/22 01:48:51;;;;;;;12.32;5.85;;;;;;;19.53;60.53;101509.19;6213446;23;20310;-59
2022/08/22 01:51:24;;;;;;;11.35;6.03;;;;;;;19.46;60.88;101517.19;6215129;23;20004;-59
2022/08/22 01:53:53;;;;;;;11.02;6.18;;;;;;;19.48;60.98;101509.25;6213986;23;20127;-60
2022/08/22 01:56:21;;;;;;;11.70;6.53;;;;;;;19.45;60.96;101505.03;6211434;23;20009;-59
2022/08/22 01:59:07;;;;;;;10.90;6.40;;;;;;;19.48;60.77;101504.47;6214832;23;20011;-59
2022/08/22 02:02:00;;;;;;;11.23;6.95;;;;;;;19.50;60.60;101512.63;6212966;23;20005;-59
2022/08/22 02:04:45;;;;;;;14.55;6.65;;;;;;;19.44;60.89;101503.38;6214927;23;20012;-59
2022/08/22 02:07:23;;;;;;;11.07;6.72;;;;;;;19.42;60.74;101510.47;6214308;23;20082;-59
2022/08/22 02:10:12;;;;;;;17.27;7.45;;;;;;;19.50;60.50;101507.00;6213960;23;20005;-59
2022/08/22 02:12:47;;;;;;;10.85;6.15;;;;;;;19.41;61.21;101508.75;6214009;23;20005;-59
2022/08/22 02:15:25;;;;;;;10.90;6.35;;;;;;;19.37;61.34;101508.50;6214822;23;20007;-60
2022/08/22 02:17:57;;;;;;;11.00;6.63;;;;;;;19.36;61.56;101506.84;6213711;23;20019;-60
2022/08/22 02:20:29;;;;;;;11.02;7.10;;;;;;;19.33;61.54;101505.44;6214459;23;20005;-59
2022/08/22 02:23:15;;;;;;;14.75;7.10;;;;;;;19.36;61.31;101501.22;6213420;23;20000;-60
2022/08/22 02:26:20;;;;;;;12.70;7.78;;;;;;;19.48;60.84;101501.66;6213350;23;20008;-60
2022/08/22 02:29:20;;;;;;;13.10;7.43;;;;;;;19.37;61.10;101495.31;6093099;23;20038;-60
2022/08/22 02:31:59;;;;;;;13.57;7.90;;;;;;;19.31;61.43;101496.47;6212858;23;20020;-59
2022/08/22 02:34:42;;;;;;;11.48;7.53;;;;;;;19.38;61.06;101494.16;6214532;23;20009;-60
2022/08/22 02:37:16;;;;;;;15.10;7.97;;;;;;;19.27;61.19;101491.75;6213297;23;20328;-60
2022/08/22 02:39:52;;;;;;;15.25;8.50;;;;;;;19.26;61.42;101490.91;6214113;23;20103;-60
2022/08/22 02:42:46;;;;;;;12.75;7.47;;;;;;;19.28;61.42;101491.44;6213552;23;20009;-60
2022/08/22 02:45:33;;;;;;;15.52;7.55;;;;;;;19.33;61.21;101494.19;6211771;23;20005;-60
2022/08/22 02:48:04;;;;;;;11.77;8.00;;;;;;;19.24;61.90;101495.97;6213796;23;20417;-60
2022/08/22 02:50:51;;;;;;;12.15;8.40;;;;;;;19.33;61.37;101496.16;6213823;23;20351;-60
2022/08/22 02:53:22;;;;;;;13.13;8.23;;;;;;;19.23;61.70;101494.31;6214262;23;20044;-59
2022/08/22 02:56:07;;;;;;;11.75;7.72;;;;;;;19.26;61.60;101493.72;6213722;23;20533;-60
2022/08/22 02:58:55;;;;;;;11.30;7.68;;;;;;;19.29;61.45;101498.72;6213348;23;20482;-59
2022/08/22 03:01:26;;;;;;;13.50;8.95;;;;;;;19.23;61.87;101487.84;6213824;23;20008;-60
2022/08/22 03:04:26;;;;;;;11.73;9.32;;;;;;;19.27;61.72;101491.75;6214521;23;20004;-60
2022/08/22 03:07:16;;;;;;;15.07;8.93;;;;;;;19.27;61.51;101494.56;6212266;23;20031;-60
2022/08/22 03:09:56;;;;;;;13.18;8.38;;;;;;;19.17;61.78;101498.28;6212729;23;20424;-60
2022/08/22 03:12:55;;;;;;;17.95;9.55;;;;;;;19.17;61.62;101497.44;6212506;23;20004;-60
2022/08/22 03:15:47;;;;;;;14.90;8.60;;;;;;;19.20;61.61;101497.69;6213810;23;20090;-60
2022/08/22 03:18:21;;;;;;;11.87;8.70;;;;;;;19.15;61.96;101494.09;6213529;23;20005;-60
2022/08/22 03:21:42;;;;;;;12.43;9.10;;;;;;;19.23;61.66;101485.84;6212743;23;20266;-60
2022/08/22 03:24:28;;;;;;;14.95;8.52;;;;;;;19.10;61.97;101476.13;6160651;23;20019;-60
2022/08/22 03:27:18;;;;;;;13.57;8.90;;;;;;;19.17;61.78;101477.75;6213046;23;20484;-61
2022/08/22 03:29:50;;;;;;;14.80;8.80;;;;;;;19.05;62.04;101464.91;6212601;23;20012;-60
2022/08/22 03:32:22;;;;;;;12.83;8.97;;;;;;;19.07;62.16;101465.47;6214352;23;20099;-60
2022/08/22 03:35:03;;;;;;;14.48;8.48;;;;;;;19.06;62.15;101469.41;6212450;23;20243;-60
2022/08/22 03:37:34;;;;;;;10.57;8.37;;;;;;;18.99;62.23;101474.53;6213500;23;20023;-60
2022/08/22 03:40:05;;;;;;;12.63;8.52;;;;;;;18.94;62.42;101471.75;6211836;23;21097;-60
2022/08/22 03:42:51;;;;;;;11.45;8.23;;;;;;;18.94;62.54;101470.91;6213832;23;20008;-60
2022/08/22 03:45:37;;;;;;;15.30;8.73;;;;;;;18.94;62.52;101466.13;6213489;23;20534;-60
2022/08/22 03:48:21;;;;;;;12.38;8.55;;;;;;;18.95;62.32;101465.00;6213222;23;20298;-60
2022/08/22 03:51:00;;;;;;;12.07;8.05;;;;;;;18.89;62.43;101457.75;6213059;23;20413;-60
2022/08/22 03:54:00;;;;;;;12.68;8.35;;;;;;;18.91;62.48;101460.28;6213055;23;20088;-60
2022/08/22 03:56:37;;;;;;;12.73;7.90;;;;;;;18.80;62.88;101453.88;6212729;23;20024;-59
2022/08/22 03:59:21;;;;;;;11.05;8.18;;;;;;;18.75;62.98;101453.94;6212295;23;20009;-59
2022/08/22 04:02:18;;;;;;;12.35;8.40;;;;;;;18.74;63.10;101458.69;6212418;23;20332;-59
2022/08/22 04:04:59;;;;;;;9.98;8.23;;;;;;;18.71;62.94;101462.13;6213326;23;20001;-60
2022/08/22 04:07:55;;;;;;;12.60;8.77;;;;;;;18.71;62.60;101456.50;6213948;23;20032;-60
2022/08/22 04:10:42;;;;;;;11.15;8.23;;;;;;;18.72;62.44;101458.16;6212864;23;20008;-59
2022/08/22 04:13:36;;;;;;;10.55;7.78;;;;;;;18.69;62.41;101464.34;6213956;23;20067;-59
2022/08/22 04:16:22;;;;;;;12.02;8.15;;;;;;;18.58;62.85;101462.72;6212404;23;20381;-60
2022/08/22 04:18:50;;;;;;;10.82;8.13;;;;;;;18.56;63.13;101471.47;6213938;23;20380;-61
2022/08/22 04:21:37;;;;;;;12.60;8.68;;;;;;;18.52;63.14;101469.53;6212565;23;20415;-60
2022/08/22 04:24:40;;;;;;;15.10;8.52;;;;;;;18.63;62.78;101473.97;6212863;23;20012;-60
2022/08/22 04:27:37;;;;;;;21.52;9.27;;;;;;;18.68;62.50;101479.53;6212423;23;20345;-60
2022/08/22 04:30:02;;;;;;;16.38;9.10;;;;;;;18.55;63.40;101480.19;6107556;23;20017;-60
2022/08/22 04:32:40;;;;;;;13.43;8.82;;;;;;;18.57;63.48;101489.19;6213195;23;20325;-60
2022/08/22 04:35:38;;;;;;;20.42;8.40;;;;;;;18.59;63.23;101484.94;6213626;23;20012;-60
2022/08/22 04:38:15;;;;;;;16.10;8.68;;;;;;;18.53;63.59;101471.22;6212487;23;20084;-60
2022/08/22 04:40:49;;;;;;;14.43;9.07;;;;;;;18.51;64.16;101476.28;6211889;23;20086;-60
2022/08/22 04:43:40;;;;;;;14.80;9.15;;;;;;;18.59;63.66;101478.50;6214349;23;20008;-60
2022/08/22 04:46:17;;;;;;;17.85;8.90;;;;;;;18.52;63.94;101477.97;6214383;23;20091;-60
2022/08/22 04:48:52;;;;;;;15.02;9.15;;;;;;;18.53;64.13;101476.84;6213055;23;20040;-60
2022/08/22 04:51:27;;;;;;;18.33;8.95;;;;;;;18.53;64.12;101476.84;6213406;23;20004;-60
2022/08/22 04:54:11;;;;;;;15.55;9.50;;;;;;;18.51;64.63;101479.09;6213756;23;20103;-60
2022/08/22 04:57:07;;;;;;;12.45;9.48;;;;;;;18.58;64.34;101486.06;6214307;23;20325;-60
2022/08/22 04:59:33;;;;;;;20.85;9.50;;;;;;;18.54;64.72;101490.59;6213315;23;20009;-60
2022/08/22 05:02:05;;;;;;;23.25;9.75;;;;;;;18.55;64.58;101492.28;6214346;23;20040;-60
2022/08/22 05:04:33;;;;;;;18.93;9.93;;;;;;;18.54;64.83;101495.38;6214114;23;20008;-60
2022/08/22 05:07:15;;;;;;;19.83;9.80;;;;;;;18.59;64.60;101492.56;6214333;23;20070;-60
2022/08/22 05:09:47;;;;;;;17.90;9.75;;;;;;;18.58;64.92;101502.09;6214166;23;20139;-60
2022/08/22 05:12:24;;;;;;;20.95;9.30;;;;;;;18.58;64.71;101496.47;6213824;23;20047;-60
2022/08/22 05:14:56;;;;;;;17.35;9.73;;;;;;;18.58;65.05;101500.13;6214993;23;20008;-60
2022/08/22 05:17:26;;;;;;;20.23;10.27;;;;;;;18.57;64.99;101490.00;6214744;23;20001;-60
2022/08/22 05:19:55;;;;;;;22.45;10.07;;;;;;;18.62;64.74;101497.56;6213889;23;20004;-60
2022/08/22 05:22:26;;;;;;;17.77;10.30;;;;;;;18.59;64.57;101498.19;6213603;23;20004;-60
2022/08/22 05:24:58;;;;;;;23.35;9.77;;;;;;;18.63;64.40;101496.47;6215312;23;20001;-60
2022/08/22 05:27:27;;;;;;;23.85;10.93;;;;;;;18.65;64.39;101497.00;6213939;23;20004;-60
2022/08/22 05:30:01;;;;;;;26.90;10.68;;;;;;;18.67;64.68;101494.75;6214996;23;20000;-60
2022/08/22 05:32:31;;;;;;;17.67;10.00;;;;;;;18.68;64.42;101502.03;6214177;23;20016;-59
2022/08/22 05:35:00;;;;;;;15.65;10.15;;;;;;;18.67;64.70;101506.00;6215431;23;20029;-59
2022/08/22 05:37:37;;;;;;;16.67;9.75;;;;;;;18.69;64.75;101514.13;6214640;23;20005;-59
2022/08/22 05:40:03;;;;;;;19.20;10.18;;;;;;;18.70;64.46;101516.66;6211919;23;20086;-59
2022/08/22 05:42:32;;;;;;;17.25;10.07;;;;;;;18.71;64.65;101509.09;6214355;23;20012;-59
2022/08/22 05:45:01;;;;;;;23.13;10.50;;;;;;;18.70;64.29;101499.78;6214832;23;20070;-60
2022/08/22 05:48:05;;;;;;;14.50;9.65;;;;;;;18.87;63.49;101508.69;6213417;23;20001;-59
2022/08/22 05:50:36;;;;;;;19.83;10.57;;;;;;;18.84;63.80;101508.41;6152722;23;20429;-59
2022/08/22 05:53:14;;;;;;;23.35;11.10;;;;;;;18.79;63.93;101508.47;6213896;23;20012;-59
2022/08/22 05:56:03;;;;;;;20.20;10.48;;;;;;;18.88;63.46;101501.91;6213150;23;20458;-59
2022/08/22 05:58:50;;;;;;;21.52;10.95;;;;;;;18.89;63.49;101503.59;6212246;23;20016;-59
2022/08/22 06:01:30;;;;;;;22.80;11.27;;;;;;;18.89;63.39;101497.13;6211123;23;20044;-59
2022/08/22 06:04:20;;;;;;;19.10;11.70;;;;;;;18.84;63.97;101495.19;6214949;23;20001;-59
2022/08/22 06:06:55;;;;;;;18.52;10.65;;;;;;;18.89;63.45;101497.13;6214903;23;20024;-59
2022/08/22 06:09:37;;;;;;;16.90;10.73;;;;;;;18.84;63.64;101495.19;6211025;23;20013;-59
2022/08/22 06:12:05;;;;;;;;;;;;;;;19.06;62.59;101502.31;6214335;23;20001;-59
2022/08/22 06:14:41;;;;;;;15.25;11.50;;;;;;;18.88;63.53;101507.53;6213154;23;19915;-59
2022/08/22 06:17:12;;;;;;;17.73;11.50;;;;;;;18.92;63.52;101502.16;6213733;23;20436;-59
2022/08/22 06:19:43;;;;;;;15.57;11.07;;;;;;;18.93;63.59;101503.00;6214238;23;20394;-59
2022/08/22 06:22:12;;;;;;;17.27;10.93;;;;;;;18.91;63.97;101513.72;6213266;23;20011;-59
2022/08/22 06:24:38;;;;;;;17.98;11.43;;;;;;;18.85;64.25;101513.75;6213524;23;20329;-59
2022/08/22 06:27:10;;;;;;;20.08;12.43;;;;;;;18.85;64.28;101512.91;6213554;23;20009;-59
2022/08/22 06:29:39;;;;;;;16.48;11.63;;;;;;;18.87;64.27;101505.03;6213469;23;20015;-59
2022/08/22 06:32:27;;;;;;;17.73;11.75;;;;;;;18.91;64.31;101510.91;6213638;23;20008;-59
2022/08/22 06:34:58;;;;;;;16.13;11.45;;;;;;;18.88;64.72;101513.16;6209288;23;20063;-59
2022/08/22 06:37:30;;;;;;;15.67;11.57;;;;;;;18.93;64.84;101515.09;6213502;23;20004;-59
2022/08/22 06:39:58;;;;;;;20.67;11.80;;;;;;;18.95;64.88;101512.84;6210391;23;20027;-60
2022/08/22 06:42:28;;;;;;;18.30;12.55;;;;;;;18.97;64.83;101515.34;6212280;23;20462;-59
2022/08/22 06:45:20;;;;;;;19.88;7.20;;;;;;;19.10;64.93;101512.72;6212928;23;20070;-60
2022/08/22 06:48:09;;;;;;;16.75;9.90;;;;;;;19.20;64.39;101523.03;6201120;23;20012;-57
2022/08/22 06:50:38;;;;;;;13.23;7.63;;;;;;;19.27;64.68;101517.91;6195679;23;20008;-58
2022/08/22 06:53:13;;;;;;;9.57;6.53;;;;;;;19.35;64.27;101522.06;6211719;23;20005;-59
2022/08/22 06:55:44;;;;;;;11.75;6.45;;;;;;;19.46;64.88;101529.28;6208320;23;20008;-58
2022/08/22 06:58:28;;;;;;;11.30;9.77;;;;;;;19.48;63.95;101531.78;6211010;23;20008;-59
2022/08/22 07:00:59;;;;;;;18.75;11.82;;;;;;;19.37;64.48;101543.16;6209419;23;20376;-59
2022/08/22 07:03:32;;;;;;;10.43;8.55;;;;;;;19.53;63.60;101538.22;6209853;23;20000;-59
2022/08/22 07:05:58;;;;;;;14.05;10.10;;;;;;;19.54;64.08;101539.06;6207514;23;20015;-58
2022/08/22 07:08:25;;;;;;;14.00;9.48;;;;;;;19.60;64.23;101540.66;6207499;23;20083;-57
2022/08/22 07:11:04;;;;;;;15.52;9.40;;;;;;;19.70;64.08;101549.06;6210222;23;20043;-58
2022/08/22 07:13:30;;;;;;;13.68;10.43;;;;;;;19.70;63.84;101540.59;6212188;23;20011;-58
2022/08/22 07:15:58;;;;;;;15.05;13.15;;;;;;;19.64;63.99;101543.75;6211065;23;20009;-58
2022/08/22 07:18:26;;;;;;;16.85;13.25;;;;;;;19.61;64.12;101546.03;6210234;23;20004;-58
2022/08/22 07:20:54;;;;;;;16.77;12.27;;;;;;;19.64;64.02;101543.75;6211097;23;20013;-58
2022/08/22 07:23:39;;;;;;;16.60;11.55;;;;;;;19.74;63.71;101536.03;6213131;23;20004;-58
2022/08/22 07:26:28;;;;;;;12.15;9.90;;;;;;;19.82;63.53;101540.19;6212459;23;20019;-58
2022/08/22 07:29:05;;;;;;;15.68;10.98;;;;;;;19.85;63.54;101533.97;6212754;23;20716;-58
2022/08/22 07:31:36;;;;;;;12.10;9.90;;;;;;;19.89;62.86;101540.69;6213384;23;20024;-58
2022/08/22 07:34:22;;;;;;;17.38;13.02;;;;;;;19.89;63.53;101534.22;6212514;23;19997;-58
2022/08/22 07:37:02;;;;;;;14.57;11.02;;;;;;;19.96;63.83;101535.50;6167134;23;20068;-58
2022/08/22 07:39:37;;;;;;;14.57;11.20;;;;;;;20.02;63.74;101536.28;6211287;23;20078;-58
2022/08/22 07:42:10;;;;;;;18.50;12.75;;;;;;;19.99;64.33;101522.81;6211681;23;20025;-59
2022/08/22 07:44:56;;;;;;;14.75;9.80;;;;;;;20.22;63.25;101523.94;6213453;23;20012;-59
2022/08/22 07:47:26;;;;;;;18.23;12.77;;;;;;;20.37;63.11;101515.25;6212042;23;20009;-59
2022/08/22 07:49:56;;;;;;;21.50;14.45;;;;;;;20.47;63.16;101514.25;6212339;23;20000;-59
2022/08/22 07:52:28;;;;;;;16.23;10.48;;;;;;;20.87;61.89;101523.28;6212916;23;20007;-59
2022/08/22 07:54:56;;;;;;;;;;;;;;;20.94;62.29;101523.75;6212644;23;20421;-59
2022/08/22 07:57:38;;;;;;;16.50;11.30;;;;;;;21.09;61.27;101517.84;6212825;23;20078;-59
2022/08/22 08:00:12;;;;;;;19.30;11.97;;;;;;;21.25;61.04;101515.59;6211873;23;20643;-59
2022/08/22 08:02:49;;;;;;;16.50;10.18;;;;;;;21.40;60.71;101520.19;6213087;23;20008;-58
2022/08/22 08:05:16;;;;;;;17.88;12.70;;;;;;;21.46;59.98;101508.50;6212884;23;20011;-58
2022/08/22 08:07:44;;;;;;;14.65;10.70;;;;;;;21.64;59.80;101514.38;6212128;23;20302;-58
2022/08/22 08:10:15;;;;;;;18.92;10.65;;;;;;;21.72;59.42;101508.81;6212247;23;20424;-58
2022/08/22 08:12:46;;;;;;;14.00;9.32;;;;;;;21.86;59.08;101508.00;6211944;23;20028;-58
2022/08/22 08:15:17;;;;;;;17.02;8.65;;;;;;;21.93;58.75;101499.91;6211648;23;20007;-58
2022/08/22 08:17:44;;;;;;;17.77;9.95;;;;;;;21.88;58.82;101503.69;6213090;23;20000;-59
2022/08/22 08:20:13;;;;;;;21.00;12.20;;;;;;;21.82;59.06;101499.31;6211355;23;20115;-59
2022/08/22 08:22:42;;;;;;;20.17;13.05;;;;;;;21.78;59.68;101499.09;6211832;23;20445;-58
2022/08/22 08:25:11;;;;;;;17.10;12.02;;;;;;;21.84;59.28;101493.34;6212658;23;20029;-59
2022/08/22 08:30:28;;;;;;;14.90;7.75;;;;;;;22.06;59.40;101494.28;6211297;23;20050;-59
2022/08/22 08:32:57;;;;;;;19.63;13.13;;;;;;;21.94;57.96;101491.16;6212285;23;20012;-59
2022/08/22 08:35:27;;;;;;;14.95;11.07;;;;;;;22.00;58.27;101494.69;6211618;23;20004;-59
2022/08/22 08:38:09;;;;;;;20.95;11.55;;;;;;;22.11;58.13;101501.81;6212654;23;20376;-59
2022/08/22 08:40:52;;;;;;;16.73;8.93;;;;;;;22.19;58.76;101500.25;6209905;23;20092;-59
2022/08/22 08:43:33;;;;;;;17.13;10.50;;;;;;;22.10;57.47;101494.50;6211167;23;20040;-59
2022/08/22 08:46:13;;;;;;;17.35;11.10;;;;;;;22.11;58.15;101493.31;6212720;23;20020;-59
2022/08/22 08:49:09;;;;;;;15.50;8.55;;;;;;;22.13;58.91;101491.06;6210791;23;20092;-59
2022/08/22 08:52:08;;;;;;;15.32;5.95;;;;;;;22.14;58.56;101491.91;6211023;23;20015;-59
2022/08/22 08:54:54;;;;;;;15.57;8.45;;;;;;;22.06;57.99;101493.44;6209797;23;20040;-59
2022/08/22 08:57:32;;;;;;;16.00;8.02;;;;;;;22.02;57.58;101486.75;6207751;23;20302;-59
2022/08/22 09:00:09;;;;;;;20.23;8.60;;;;;;;22.00;57.13;101489.03;6211177;23;20043;-59
2022/08/22 09:02:51;;;;;;;14.68;8.82;;;;;;;21.95;57.40;101491.97;6209803;23;20101;-59
2022/08/22 09:05:33;;;;;;;16.23;8.30;;;;;;;21.96;57.26;101488.81;6208393;23;20405;-60
2022/08/22 09:08:36;;;;;;;17.90;8.05;;;;;;;21.96;57.88;101488.00;6209718;23;20023;-60
2022/08/22 09:11:38;;;;;;;11.82;5.72;;;;;;;22.00;58.58;101477.72;6209877;23;20019;-60
2022/08/22 09:14:11;;;;;;;15.20;7.78;;;;;;;21.95;56.51;101483.50;6207774;23;20009;-59
2022/08/22 09:17:18;;;;;;;12.27;7.55;;;;;;;21.92;56.38;101484.13;6208991;23;20008;-59
2022/08/22 09:19:56;;;;;;;10.90;5.55;;;;;;;21.92;56.69;101475.66;6208898;23;20004;-59
2022/08/22 09:22:34;;;;;;;14.32;6.70;;;;;;;21.90;57.05;101477.97;6210235;23;20083;-60
2022/08/22 09:25:19;;;;;;;13.52;7.47;;;;;;;21.85;56.19;101478.06;6211177;23;20070;-60
2022/08/22 09:28:08;;;;;;;9.48;5.15;;;;;;;21.92;58.25;101482.13;6212938;23;20015;-59
2022/08/22 09:31:08;;;;;;;11.98;4.60;;;;;;;21.94;58.05;101473.34;6191269;23;20013;-59
2022/08/22 09:33:53;;;;;;;14.15;7.43;;;;;;;21.89;56.29;101479.97;6213023;23;20368;-59
2022/08/22 09:37:03;;;;;;;11.85;6.15;;;;;;;21.91;56.99;101483.28;6211387;23;20091;-60
2022/08/22 09:39:51;;;;;;;17.60;7.07;;;;;;;21.90;56.77;101483.63;6210861;23;20039;-59
2022/08/22 09:42:28;;;;;;;13.05;6.88;;;;;;;21.87;56.15;101479.41;6213976;23;20330;-60
2022/08/22 09:45:05;;;;;;;8.27;4.15;;;;;;;21.94;56.50;101479.00;6212701;23;20013;-59
2022/08/22 09:47:58;;;;;;;10.00;5.20;;;;;;;21.93;55.81;101482.97;6211588;23;20016;-61
2022/08/22 09:50:48;;;;;;;13.63;4.80;;;;;;;21.95;54.54;101483.50;6212038;23;20429;-61
2022/08/22 09:53:33;;;;;;;10.13;3.97;;;;;;;22.04;56.24;101481.59;6212075;23;20087;-60
2022/08/22 09:56:04;;;;;;;17.05;6.28;;;;;;;22.03;54.55;101482.75;6212502;23;20063;-61
2022/08/22 09:58:48;;;;;;;10.50;4.30;;;;;;;22.09;54.41;101473.03;6210843;23;20004;-60
2022/08/22 10:01:25;;;;;;;8.23;3.70;;;;;;;22.18;54.65;101471.16;6209094;23;20008;-61
2022/08/22 10:04:41;;;;;;;8.73;4.45;;;;;;;22.23;54.30;101470.19;6212244;23;20403;-60
2022/08/22 10:07:34;;;;;;;9.95;4.18;;;;;;;22.34;52.95;101466.00;6157611;23;20012;-60
2022/08/22 10:10:05;;;;;;;9.40;3.72;;;;;;;22.42;52.37;101467.22;6211430;23;20063;-60
2022/08/22 10:12:41;;;;;;;7.63;3.93;;;;;;;22.48;51.96;101460.31;6211710;23;20043;-60
2022/08/22 10:15:18;;;;;;;10.15;4.07;;;;;;;22.59;50.50;101461.72;6210647;23;20333;-61
2022/08/22 10:17:53;;;;;;;7.65;3.42;;;;;;;22.65;51.02;101457.63;6211606;23;20001;-60
2022/08/22 10:20:28;;;;;;;9.68;4.70;;;;;;;22.70;49.28;101460.31;6212750;23;20009;-61
2022/08/22 10:23:19;;;;;;;12.00;4.90;;;;;;;22.75;51.15;101448.03;6211872;23;20008;-61
2022/08/22 10:26:20;;;;;;;11.23;4.20;;;;;;;22.81;48.69;101454.41;6209502;23;20348;-60
2022/08/22 10:28:56;;;;;;;8.05;3.70;;;;;;;22.84;48.65;101445.28;6213783;23;20324;-61
2022/08/22 10:31:42;;;;;;;12.95;4.25;;;;;;;22.90;48.68;101449.66;6211612;23;20018;-60
2022/08/22 10:34:29;;;;;;;11.48;4.28;;;;;;;22.91;49.12;101451.34;6211576;23;20025;-59
2022/08/22 10:37:14;;;;;;;12.68;4.78;;;;;;;22.97;48.74;101445.22;6212418;23;20012;-60
2022/08/22 10:39:51;;;;;;;10.07;4.13;;;;;;;23.00;48.62;101443.75;6209719;23;20406;-60
2022/08/22 10:42:28;;;;;;;10.20;4.10;;;;;;;23.07;48.52;101437.63;6211344;23;20339;-60
2022/08/22 10:45:12;;;;;;;9.35;4.10;;;;;;;23.14;48.51;101438.84;6211432;23;20306;-59
2022/08/22 10:48:04;;;;;;;10.35;4.60;;;;;;;23.20;47.65;101426.22;6212108;23;20075;-59
2022/08/22 10:50:30;;;;;;;;;;;;;;;23.30;49.57;101427.09;6211457;23;20016;-60
2022/08/22 10:55:54;;;;;;;11.55;3.53;;;;;;;23.47;47.06;101427.19;6211551;23;20063;-59
2022/08/22 10:58:25;;;;;;;11.82;3.53;;;;;;;23.60;47.30;101426.25;6212466;23;20043;-59
2022/08/22 11:00:57;;;;;;;7.30;2.70;;;;;;;23.65;45.85;101426.09;6212566;23;20329;-58
2022/08/22 11:03:59;;;;;;;11.00;3.78;;;;;;;23.66;47.50;101429.81;6211350;23;20003;-59
2022/08/22 11:06:44;;;;;;;7.93;3.22;;;;;;;23.71;47.36;101427.66;6212670;23;20633;-59
2022/08/22 11:09:28;;;;;;;6.90;3.10;;;;;;;23.66;46.32;101433.47;6212077;23;20132;-59
2022/08/22 11:11:56;;;;;;;11.10;4.15;;;;;;;23.57;45.46;101426.06;6211143;23;20496;-59
2022/08/22 11:14:30;;;;;;;14.23;3.75;;;;;;;23.57;45.78;101426.06;6212853;23;20008;-60
2022/08/22 11:17:08;;;;;;;10.65;3.42;;;;;;;23.56;46.54;101430.06;6213246;23;20055;-59
2022/08/22 11:20:09;;;;;;;10.43;3.58;;;;;;;23.55;46.89;101429.22;6212400;23;20005;-59
2022/08/22 11:22:49;;;;;;;10.07;3.70;;;;;;;23.56;46.76;101427.22;6212898;23;20068;-58
2022/08/22 11:25:42;;;;;;;13.27;3.13;;;;;;;23.61;46.76;101427.06;6212011;23;20028;-59
2022/08/22 11:28:26;;;;;;;8.52;2.58;;;;;;;23.63;44.13;101421.94;6212639;23;20467;-59
2022/08/22 11:30:57;;;;;;;7.22;2.60;;;;;;;23.63;44.94;101419.94;6212976;23;20328;-59
2022/08/22 11:33:45;;;;;;;7.53;2.80;;;;;;;23.64;46.00;101417.91;6211842;23;20047;-58
2022/08/22 11:36:26;;;;;;;6.90;2.90;;;;;;;23.65;46.17;101422.41;6213663;23;20000;-59
2022/08/22 11:39:04;;;;;;;9.73;2.88;;;;;;;23.60;44.57;101414.91;6212323;23;20001;-58
2022/08/22 11:41:35;;;;;;;10.15;2.65;;;;;;;23.62;44.72;101423.94;6211154;23;20021;-58
2022/08/22 11:44:22;;;;;;;8.88;2.88;;;;;;;23.59;44.71;101416.06;6212984;23;20356;-59
2022/08/22 11:46:51;;;;;;;7.68;2.90;;;;;;;23.61;44.08;101412.91;6212930;23;20005;-59
2022/08/22 11:49:26;;;;;;;7.40;2.75;;;;;;;23.63;44.62;101408.59;6211170;23;20031;-58
2022/08/22 11:52:06;;;;;;;9.15;3.13;;;;;;;23.64;44.97;101410.25;6210485;23;20008;-58
2022/08/22 11:54:41;;;;;;;8.07;2.85;;;;;;;23.66;45.99;101407.97;6209732;23;20082;-58
2022/08/22 11:57:12;;;;;;;9.63;3.30;;;;;;;23.62;45.30;101409.75;6211993;23;20013;-58
2022/08/22 11:59:57;;;;;;;8.15;2.50;;;;;;;23.63;45.74;101417.09;6210431;23;20012;-58
2022/08/22 12:02:41;;;;;;;7.53;2.75;;;;;;;23.61;45.36;101402.41;6149689;23;20087;-59
2022/08/22 12:05:15;;;;;;;9.75;2.88;;;;;;;23.57;45.05;101401.38;6208543;23;20059;-58
2022/08/22 12:07:53;;;;;;;8.38;2.53;;;;;;;23.60;46.63;101412.06;6211159;23;20436;-60
2022/08/22 12:10:24;;;;;;;9.18;2.88;;;;;;;23.56;45.20;101399.72;6210376;23;20349;-60
2022/08/22 12:13:04;;;;;;;8.45;3.08;;;;;;;23.53;44.56;101408.88;6208042;23;20421;-61
2022/08/22 12:15:48;;;;;;;9.93;3.05;;;;;;;23.58;46.48;101402.22;6209861;23;20035;-60
2022/08/22 12:18:33;;;;;;;11.20;3.05;;;;;;;23.55;45.69;101395.22;6211806;23;20020;-59
2022/08/22 12:21:36;;;;;;;8.35;2.80;;;;;;;23.57;46.69;101404.22;6208251;23;20332;-59
2022/08/22 12:24:30;;;;;;;9.32;3.22;;;;;;;23.56;45.74;101407.41;6167298;23;20004;-59
2022/08/22 12:27:27;;;;;;;8.07;2.70;;;;;;;23.58;45.73;101403.09;6213093;23;20005;-59